N53045 KSYR-KSYR
Flight info
| Callsign | N53045 |
|---|---|
| Flight time | 0h 3m |
| Altitude | 1500 |
| Route | KSYR KSYR |
| Aircraft | C172/L-VGDW/C |
Departure
| Time | 2026-04-20 00:35 |
|---|---|
| Airport | Syracuse Hancock International Airport (KSYR) |
Arrival
| Time | 2026-04-20 00:38 |
|---|---|
| Airport | Syracuse Hancock International Airport (KSYR) |
| Time | Latitude | Longitude | Altitude | Speed | Heading |
|---|---|---|---|---|---|
| 2026-04-20 00:28 | 43.10480 | -76.10652 | 416 ft | 0 kts | 1° |
| 2026-04-20 00:30 | 43.10493 | -76.10618 | 416 ft | 12 kts | 114° |
| 2026-04-20 00:31 | 43.10503 | -76.10524 | 414 ft | 12 kts | 351° |
| 2026-04-20 00:31 | 43.10588 | -76.10539 | 419 ft | 12 kts | 356° |
| 2026-04-20 00:31 | 43.10667 | -76.10533 | 419 ft | 11 kts | 21° |
| 2026-04-20 00:31 | 43.10655 | -76.10455 | 414 ft | 12 kts | 111° |
| 2026-04-20 00:32 | 43.10661 | -76.10306 | 419 ft | 18 kts | 85° |
| 2026-04-20 00:32 | 43.10667 | -76.10139 | 419 ft | 17 kts | 88° |
| 2026-04-20 00:32 | 43.10672 | -76.09966 | 419 ft | 21 kts | 91° |
| 2026-04-20 00:32 | 43.10678 | -76.09778 | 419 ft | 19 kts | 87° |
| 2026-04-20 00:33 | 43.10684 | -76.09600 | 419 ft | 19 kts | 86° |
| 2026-04-20 00:33 | 43.10658 | -76.09448 | 419 ft | 15 kts | 133° |
| 2026-04-20 00:33 | 43.10648 | -76.09349 | 417 ft | 10 kts | 46° |
| 2026-04-20 00:33 | 43.10689 | -76.09296 | 425 ft | 9 kts | 41° |
| 2026-04-20 00:34 | 43.10764 | -76.09258 | 424 ft | 13 kts | 0° |
| 2026-04-20 00:34 | 43.10848 | -76.09265 | 422 ft | 0 kts | 356° |
| 2026-04-20 00:34 | 43.10911 | -76.09278 | 424 ft | 18 kts | 328° |
| 2026-04-20 00:34 | 43.10919 | -76.09611 | 423 ft | 60 kts | 266° |
| 2026-04-20 00:35 | 43.10889 | -76.10348 | 523 ft | 84 kts | 267° |
| 2026-04-20 00:35 | 43.10870 | -76.11140 | 783 ft | 85 kts | 268° |
| 2026-04-20 00:35 | 43.10892 | -76.11940 | 1066 ft | 82 kts | 268° |
| 2026-04-20 00:35 | 43.10629 | -76.12616 | 1177 ft | 99 kts | 210° |
| 2026-04-20 00:36 | 43.09934 | -76.12577 | 1453 ft | 104 kts | 145° |
| 2026-04-20 00:36 | 43.09774 | -76.11600 | 1682 ft | 114 kts | 89° |
| 2026-04-20 00:36 | 43.09727 | -76.10431 | 1526 ft | 126 kts | 94° |
| 2026-04-20 00:36 | 43.09682 | -76.09265 | 1146 ft | 121 kts | 92° |
| 2026-04-20 00:37 | 43.09758 | -76.08257 | 1101 ft | 94 kts | 83° |
| 2026-04-20 00:37 | 43.10175 | -76.07699 | 1241 ft | 87 kts | 1° |
| 2026-04-20 00:37 | 43.10685 | -76.07644 | 1179 ft | 68 kts | 339° |
| 2026-04-20 00:37 | 43.10959 | -76.08125 | 811 ft | 69 kts | 273° |
| 2026-04-20 00:38 | 43.10962 | -76.08715 | 604 ft | 57 kts | 258° |
| 2026-04-20 00:38 | 43.10929 | -76.09227 | 465 ft | 50 kts | 267° |
| 2026-04-20 00:38 | 43.10913 | -76.09622 | 423 ft | 34 kts | 266° |
| 2026-04-20 00:38 | 43.10897 | -76.10154 | 477 ft | 69 kts | 266° |
| 2026-04-20 00:39 | 43.10883 | -76.10856 | 697 ft | 77 kts | 265° |
| 2026-04-20 00:39 | 43.10840 | -76.11635 | 877 ft | 88 kts | 262° |
| 2026-04-20 00:39 | 43.10828 | -76.12503 | 1077 ft | 92 kts | 267° |
| 2026-04-20 00:39 | 43.10674 | -76.13316 | 1234 ft | 101 kts | 223° |
| 2026-04-20 00:40 | 43.09974 | -76.13506 | 1497 ft | 103 kts | 175° |
| 2026-04-20 00:40 | 43.09569 | -76.12585 | 1397 ft | 127 kts | 98° |
| 2026-04-20 00:40 | 43.09495 | -76.11450 | 1629 ft | 114 kts | 93° |
| 2026-04-20 00:40 | 43.09472 | -76.10328 | 1552 ft | 122 kts | 91° |
| 2026-04-20 00:41 | 43.09473 | -76.09113 | 1460 ft | 123 kts | 91° |
| 2026-04-20 00:41 | 43.09627 | -76.08097 | 1148 ft | 111 kts | 42° |
| 2026-04-20 00:41 | 43.10230 | -76.07690 | 1061 ft | 90 kts | 1° |
| 2026-04-20 00:41 | 43.10815 | -76.07756 | 889 ft | 76 kts | 310° |
| 2026-04-20 00:42 | 43.10978 | -76.08381 | 662 ft | 64 kts | 266° |
| 2026-04-20 00:42 | 43.10948 | -76.08938 | 524 ft | 56 kts | 264° |
| 2026-04-20 00:42 | 43.10924 | -76.09445 | 453 ft | 52 kts | 266° |
| 2026-04-20 00:42 | 43.10909 | -76.09860 | 420 ft | 40 kts | 270° |
| 2026-04-20 00:43 | 43.10888 | -76.10440 | 484 ft | 73 kts | 267° |
| 2026-04-20 00:43 | 43.10870 | -76.11193 | 663 ft | 84 kts | 262° |
| 2026-04-20 00:43 | 43.10866 | -76.12029 | 855 ft | 91 kts | 268° |
| 2026-04-20 00:43 | 43.10818 | -76.12866 | 1131 ft | 85 kts | 261° |
| 2026-04-20 00:44 | 43.10570 | -76.13422 | 1480 ft | 84 kts | 199° |
| 2026-04-20 00:44 | 43.09979 | -76.13186 | 1704 ft | 100 kts | 142° |
| 2026-04-20 00:44 | 43.09749 | -76.12234 | 1777 ft | 110 kts | 98° |
| 2026-04-20 00:44 | 43.09717 | -76.11182 | 1415 ft | 113 kts | 87° |
| 2026-04-20 00:45 | 43.09811 | -76.10177 | 1261 ft | 105 kts | 88° |
| 2026-04-20 00:45 | 43.09852 | -76.09182 | 1157 ft | 103 kts | 91° |
| 2026-04-20 00:45 | 43.10079 | -76.08280 | 883 ft | 107 kts | 36° |
| 2026-04-20 00:45 | 43.10714 | -76.07927 | 827 ft | 90 kts | 1° |
| 2026-04-20 00:46 | 43.10986 | -76.08348 | 687 ft | 76 kts | 257° |
| 2026-04-20 00:46 | 43.10944 | -76.09021 | 507 ft | 61 kts | 263° |
| 2026-04-20 00:46 | 43.10924 | -76.09517 | 439 ft | 47 kts | 268° |
| 2026-04-20 00:46 | 43.10906 | -76.09955 | 419 ft | 50 kts | 267° |
| 2026-04-20 00:47 | 43.10888 | -76.10588 | 532 ft | 75 kts | 266° |
| 2026-04-20 00:47 | 43.10874 | -76.11332 | 733 ft | 83 kts | 265° |
| 2026-04-20 00:47 | 43.10845 | -76.12152 | 939 ft | 89 kts | 261° |
| 2026-04-20 00:47 | 43.10692 | -76.12945 | 1146 ft | 92 kts | 225° |
| 2026-04-20 00:48 | 43.10013 | -76.13009 | 1291 ft | 106 kts | 169° |
| 2026-04-20 00:48 | 43.09578 | -76.12218 | 1411 ft | 120 kts | 97° |
| 2026-04-20 00:48 | 43.09597 | -76.11119 | 1507 ft | 114 kts | 87° |
| 2026-04-20 00:48 | 43.09590 | -76.10039 | 1504 ft | 113 kts | 95° |
| 2026-04-20 00:49 | 43.09501 | -76.08952 | 1236 ft | 111 kts | 77° |
| 2026-04-20 00:49 | 43.09910 | -76.08186 | 1051 ft | 96 kts | 20° |
| 2026-04-20 00:49 | 43.10511 | -76.07879 | 897 ft | 90 kts | 9° |
| 2026-04-20 00:49 | 43.10949 | -76.08105 | 799 ft | 70 kts | 285° |
| 2026-04-20 00:50 | 43.10963 | -76.08740 | 616 ft | 58 kts | 261° |
| 2026-04-20 00:50 | 43.10932 | -76.09257 | 489 ft | 51 kts | 266° |
| 2026-04-20 00:50 | 43.10914 | -76.09737 | 421 ft | 45 kts | 269° |
| 2026-04-20 00:50 | 43.10894 | -76.10349 | 436 ft | 82 kts | 266° |
| 2026-04-20 00:51 | 43.10883 | -76.10905 | 522 ft | 92 kts | 267° |
| 2026-04-20 00:51 | 43.10863 | -76.11802 | 705 ft | 95 kts | 264° |
| 2026-04-20 00:51 | 43.10852 | -76.12726 | 887 ft | 98 kts | 268° |
| 2026-04-20 00:51 | 43.10460 | -76.13332 | 1036 ft | 104 kts | 191° |
| 2026-04-20 00:52 | 43.09842 | -76.13102 | 1430 ft | 100 kts | 134° |
| 2026-04-20 00:52 | 43.09719 | -76.12121 | 1596 ft | 114 kts | 89° |
| 2026-04-20 00:52 | 43.09697 | -76.10930 | 1521 ft | 134 kts | 94° |
| 2026-04-20 00:52 | 43.09639 | -76.09757 | 1284 ft | 116 kts | 95° |
| 2026-04-20 00:53 | 43.09647 | -76.08675 | 1129 ft | 119 kts | 90° |
| 2026-04-20 00:53 | 43.09767 | -76.07664 | 1076 ft | 97 kts | 53° |
| 2026-04-20 00:53 | 43.10332 | -76.07450 | 977 ft | 85 kts | 353° |
| 2026-04-20 00:53 | 43.10800 | -76.07561 | 970 ft | 68 kts | 303° |
| 2026-04-20 00:54 | 43.10950 | -76.08136 | 751 ft | 64 kts | 271° |
| 2026-04-20 00:54 | 43.10950 | -76.08704 | 571 ft | 56 kts | 264° |
| 2026-04-20 00:54 | 43.10933 | -76.09210 | 468 ft | 53 kts | 266° |
| 2026-04-20 00:54 | 43.10916 | -76.09687 | 422 ft | 43 kts | 270° |
| 2026-04-20 00:55 | 43.10893 | -76.10272 | 452 ft | 78 kts | 268° |
| 2026-04-20 00:55 | 43.10877 | -76.11101 | 598 ft | 91 kts | 268° |
| 2026-04-20 00:55 | 43.10848 | -76.11973 | 788 ft | 95 kts | 266° |
| 2026-04-20 00:55 | 43.10827 | -76.12881 | 1037 ft | 92 kts | 265° |
| 2026-04-20 00:56 | 43.10680 | -76.13667 | 1339 ft | 88 kts | 230° |
| 2026-04-20 00:56 | 43.10022 | -76.13738 | 1481 ft | 105 kts | 164° |
| 2026-04-20 00:56 | 43.09653 | -76.12884 | 1674 ft | 120 kts | 93° |
| 2026-04-20 00:56 | 43.09678 | -76.11697 | 1778 ft | 125 kts | 89° |
| 2026-04-20 00:57 | 43.09695 | -76.10446 | 1812 ft | 133 kts | 88° |
| 2026-04-20 00:57 | 43.09732 | -76.09186 | 1941 ft | 132 kts | 86° |
| 2026-04-20 00:57 | 43.09803 | -76.07948 | 2087 ft | 130 kts | 84° |
| 2026-04-20 00:57 | 43.09730 | -76.06710 | 2110 ft | 136 kts | 114° |
| 2026-04-20 00:58 | 43.09152 | -76.05710 | 2117 ft | 134 kts | 148° |
| 2026-04-20 00:58 | 43.08346 | -76.05103 | 2180 ft | 130 kts | 164° |
| 2026-04-20 00:58 | 43.07513 | -76.04773 | 2374 ft | 119 kts | 173° |
| 2026-04-20 00:58 | 43.06738 | -76.04511 | 2602 ft | 115 kts | 177° |
| 2026-04-20 00:59 | 43.05939 | -76.04298 | 2690 ft | 121 kts | 181° |
| 2026-04-20 00:59 | 43.05082 | -76.04246 | 2701 ft | 126 kts | 190° |
| 2026-04-20 00:59 | 43.04215 | -76.04341 | 2762 ft | 123 kts | 191° |